createdAt,value
2022-10-16T00:01:39.402Z,95732.66
2022-10-16T00:04:06.398Z,95728.38
2022-10-16T00:06:33.479Z,95737.38
2022-10-16T00:09:00.693Z,95742.13
2022-10-16T00:11:30.829Z,95746.09
2022-10-16T00:14:00.364Z,95744.22
2022-10-16T00:16:28.940Z,95749.53
2022-10-16T00:18:56.312Z,95757.41
2022-10-16T00:21:26.302Z,95752.19
2022-10-16T00:24:00.236Z,95738.97
2022-10-16T00:26:28.619Z,95754.28
2022-10-16T00:28:55.432Z,95754.28
2022-10-16T00:31:23.819Z,95754.78
2022-10-16T00:33:51.609Z,95760.38
2022-10-16T00:36:21.880Z,95762.19
2022-10-16T00:38:54.081Z,95773.53
2022-10-16T00:41:23.603Z,95771.44
2022-10-16T00:43:53.818Z,95751.63
2022-10-16T00:46:51.920Z,95771.16
2022-10-16T00:49:21.411Z,95752.44
2022-10-16T00:51:54.400Z,95760.63
2022-10-16T00:54:25.599Z,95755.84
2022-10-16T00:56:54.761Z,95751.63
2022-10-16T00:59:26.272Z,95759.81
2022-10-16T01:01:54.662Z,95762.72
2022-10-16T01:04:22.272Z,95761.09
2022-10-16T01:06:49.181Z,95769.03
2022-10-16T01:09:26.345Z,95716.28
2022-10-16T01:12:11.379Z,95777.81
2022-10-16T01:14:50.144Z,95778.31
2022-10-16T01:17:24.098Z,95775.69
2022-10-16T01:20:09.038Z,95762.53
2022-10-16T01:22:58.195Z,95769.50
2022-10-16T01:25:48.073Z,95760.19
2022-10-16T01:28:18.081Z,95761.06
2022-10-16T01:30:46.260Z,95770.69
2022-10-16T01:33:20.189Z,95754.88
2022-10-16T01:35:56.436Z,95763.81
2022-10-16T01:38:39.660Z,95754.53
2022-10-16T01:41:25.827Z,95739.53
2022-10-16T01:43:57.967Z,95761.88
2022-10-16T01:46:27.434Z,95762.53
2022-10-16T01:48:56.033Z,95767.25
2022-10-16T01:51:24.387Z,95769.69
2022-10-16T01:53:55.514Z,95772.06
2022-10-16T01:56:25.283Z,95773.13
2022-10-16T01:59:06.543Z,95779.28
2022-10-16T02:01:36.342Z,95779.81
2022-10-16T02:04:11.115Z,95768.81
2022-10-16T02:06:39.148Z,95772.94
2022-10-16T02:09:05.972Z,95778.88
2022-10-16T02:11:32.854Z,95787.31
2022-10-16T02:14:07.525Z,95763.47
2022-10-16T02:16:43.851Z,95790.50
2022-10-16T02:19:18.048Z,95789.84
2022-10-16T02:21:51.266Z,95794.19
2022-10-16T02:24:27.285Z,95800.63
2022-10-16T02:27:00.782Z,95790.28
2022-10-16T02:29:28.336Z,95799.75
2022-10-16T02:32:02.454Z,95794.34
2022-10-16T02:34:32.520Z,95810.56
2022-10-16T02:37:02.392Z,95799.41
2022-10-16T02:39:30.879Z,95810.84
2022-10-16T02:41:57.585Z,95809.28
2022-10-16T02:44:24.303Z,95800.84
2022-10-16T02:46:51.203Z,95807.19
2022-10-16T02:49:19.088Z,95813.84
2022-10-16T02:51:45.870Z,95810.53
2022-10-16T02:54:12.694Z,95807.13
2022-10-16T02:56:39.874Z,95817.94
2022-10-16T02:59:06.591Z,95821.91
2022-10-16T03:01:33.581Z,95815.50
2022-10-16T03:04:00.672Z,95822.22
2022-10-16T03:06:27.635Z,95817.81
2022-10-16T03:08:54.373Z,95825.97
2022-10-16T03:11:21.309Z,95821.06
2022-10-16T03:13:48.004Z,95821.44
2022-10-16T03:16:14.759Z,95826.47
2022-10-16T03:18:41.628Z,95833.19
2022-10-16T03:21:08.528Z,95824.75
2022-10-16T03:23:35.456Z,95823.25
2022-10-16T03:26:02.191Z,95827.97
2022-10-16T03:28:29.012Z,95832.94
2022-10-16T03:30:55.834Z,95831.44
2022-10-16T03:33:22.797Z,95834.13
2022-10-16T03:35:54.444Z,95836.25
2022-10-16T03:38:22.272Z,95835.44
2022-10-16T03:40:49.372Z,95832.38
2022-10-16T03:43:16.388Z,95833.50
2022-10-16T03:45:43.320Z,95835.13
2022-10-16T03:48:10.115Z,95834.69
2022-10-16T03:50:37.245Z,95829.84
2022-10-16T03:53:04.364Z,95830.13
2022-10-16T03:55:31.185Z,95827.34
2022-10-16T03:57:57.973Z,95831.25
2022-10-16T04:00:24.838Z,95821.78
2022-10-16T04:02:51.627Z,95822.00
2022-10-16T04:05:18.564Z,95822.56
2022-10-16T04:07:45.504Z,95826.34
2022-10-16T04:10:12.308Z,95831.50
2022-10-16T04:12:39.107Z,95828.56
2022-10-16T04:15:07.201Z,95833.69
2022-10-16T04:17:34.024Z,95831.75
2022-10-16T04:20:00.846Z,95824.53
2022-10-16T04:24:59.573Z,95841.38
2022-10-16T04:27:26.584Z,95840.16
2022-10-16T04:29:54.582Z,95837.59
2022-10-16T04:32:21.629Z,95842.28
2022-10-16T04:34:48.329Z,95842.38
2022-10-16T04:37:15.234Z,95839.47
2022-10-16T04:39:42.189Z,95851.78
2022-10-16T04:42:08.929Z,95845.66
2022-10-16T04:44:35.665Z,95855.38
2022-10-16T04:47:02.733Z,95859.69
2022-10-16T04:49:29.603Z,95860.63
2022-10-16T04:51:56.295Z,95863.94
2022-10-16T04:54:23.258Z,95862.31
2022-10-16T04:56:51.830Z,95864.41
2022-10-16T04:59:20.649Z,95865.31
2022-10-16T05:01:47.891Z,95866.00
2022-10-16T05:04:16.056Z,95885.03
2022-10-16T05:06:43.276Z,95875.78
2022-10-16T05:09:10.520Z,95886.56
2022-10-16T05:11:37.424Z,95882.91
2022-10-16T05:14:04.442Z,95881.69
2022-10-16T05:16:31.913Z,95878.53
2022-10-16T05:19:22.442Z,95882.91
2022-10-16T05:21:45.822Z,95891.81
2022-10-16T05:24:12.776Z,95868.78
2022-10-16T05:26:39.488Z,95901.03
2022-10-16T05:29:06.486Z,95891.19
2022-10-16T05:31:33.237Z,95891.06
2022-10-16T05:34:01.076Z,95885.31
2022-10-16T05:36:27.831Z,95886.94
2022-10-16T05:38:55.006Z,95894.06
2022-10-16T05:41:22.747Z,95889.78
2022-10-16T05:43:49.432Z,95898.69
2022-10-16T05:46:17.222Z,95906.22
2022-10-16T05:48:44.157Z,95906.91
2022-10-16T05:51:13.313Z,95906.84
2022-10-16T05:53:41.210Z,95905.63
2022-10-16T05:56:11.402Z,95905.91
2022-10-16T05:58:41.431Z,95907.19
2022-10-16T06:01:10.923Z,95916.50
2022-10-16T06:03:38.166Z,95921.91
2022-10-16T06:06:14.947Z,95931.72
2022-10-16T06:08:43.794Z,95934.31
2022-10-16T06:11:14.477Z,95930.69
2022-10-16T06:13:43.457Z,95934.78
2022-10-16T06:16:11.858Z,95944.25
2022-10-16T06:18:39.624Z,95934.84
2022-10-16T06:21:11.934Z,95945.03
2022-10-16T06:23:39.138Z,95953.59
2022-10-16T06:26:13.595Z,95948.91
2022-10-16T06:28:41.486Z,95947.66
2022-10-16T06:31:10.349Z,95953.78
2022-10-16T06:33:38.505Z,95952.63
2022-10-16T06:36:11.991Z,95954.16
2022-10-16T06:38:39.043Z,95955.50
2022-10-16T06:41:10.776Z,95950.16
2022-10-16T06:43:37.548Z,95962.09
2022-10-16T06:46:05.995Z,95949.41
2022-10-16T06:48:32.853Z,95957.31
2022-10-16T06:53:39.578Z,95976.22
2022-10-16T06:56:15.104Z,95972.50
2022-10-16T06:58:43.147Z,95974.78
2022-10-16T07:01:11.987Z,95983.63
2022-10-16T07:03:40.678Z,95983.84
2022-10-16T07:06:10.631Z,95972.94
2022-10-16T07:08:39.781Z,95983.38
2022-10-16T07:11:09.132Z,95981.16
2022-10-16T07:13:37.275Z,95978.06
2022-10-16T07:16:15.777Z,95982.25
2022-10-16T07:18:46.075Z,95985.72
2022-10-16T07:21:16.997Z,95987.03
2022-10-16T07:23:44.495Z,95988.91
2022-10-16T07:26:12.290Z,95988.56
2022-10-16T07:28:40.982Z,95984.69
2022-10-16T07:31:11.836Z,95971.75
2022-10-16T07:33:39.872Z,95989.97
2022-10-16T07:36:07.400Z,95981.72
2022-10-16T07:38:35.590Z,95987.97
2022-10-16T07:41:05.251Z,95993.16
2022-10-16T07:43:32.731Z,95991.84
2022-10-16T07:46:02.424Z,95995.75
2022-10-16T07:48:34.422Z,95994.28
2022-10-16T07:51:06.832Z,95995.25
2022-10-16T07:53:34.047Z,95974.72
2022-10-16T07:56:03.178Z,95981.09
2022-10-16T07:58:30.499Z,95976.34
2022-10-16T08:00:58.374Z,95988.50
2022-10-16T08:03:26.280Z,95994.25
2022-10-16T08:05:53.294Z,95985.53
2022-10-16T08:08:21.376Z,95998.53
2022-10-16T08:10:48.178Z,95984.88
2022-10-16T08:13:16.378Z,95985.69
2022-10-16T08:15:47.176Z,95987.03
2022-10-16T08:18:15.512Z,95977.59
2022-10-16T08:20:43.043Z,95971.88
2022-10-16T08:23:14.312Z,95985.47
2022-10-16T08:25:42.362Z,95970.81
2022-10-16T08:28:11.220Z,95973.09
2022-10-16T08:30:38.070Z,95967.56
2022-10-16T08:33:05.471Z,95969.53
2022-10-16T08:35:32.782Z,95963.50
2022-10-16T08:37:59.566Z,95964.59
2022-10-16T08:40:33.876Z,95965.19
2022-10-16T08:43:36.967Z,95962.97
2022-10-16T08:46:32.161Z,95968.75
2022-10-16T08:49:01.367Z,95971.91
2022-10-16T08:51:32.442Z,95972.53
2022-10-16T08:54:10.103Z,95960.69
2022-10-16T08:56:37.168Z,95972.84
2022-10-16T08:59:10.771Z,95972.41
2022-10-16T09:01:45.474Z,95974.28
2022-10-16T09:04:54.195Z,95974.28
2022-10-16T09:07:41.337Z,95964.22
2022-10-16T09:10:20.185Z,95975.22
2022-10-16T09:13:00.083Z,95956.56
2022-10-16T09:15:36.119Z,95963.25
2022-10-16T09:18:15.387Z,95962.19
2022-10-16T09:21:06.654Z,95951.25
2022-10-16T09:23:37.875Z,95960.78
2022-10-16T09:26:06.788Z,95956.97
2022-10-16T09:28:33.568Z,95955.78
2022-10-16T09:31:00.412Z,95969.41
2022-10-16T09:33:34.693Z,95958.16
2022-10-16T09:36:04.517Z,95948.66
2022-10-16T09:38:33.457Z,95949.25
2022-10-16T09:41:03.477Z,95945.91
2022-10-16T09:43:33.173Z,95949.72
2022-10-16T09:46:09.055Z,95944.84
2022-10-16T09:48:44.007Z,95941.66
2022-10-16T09:51:24.527Z,95939.16
2022-10-16T09:53:57.283Z,95943.75
2022-10-16T09:56:30.000Z,95933.78
2022-10-16T09:59:03.663Z,95934.84
2022-10-16T10:01:47.801Z,95932.38
2022-10-16T10:04:14.970Z,95927.88
2022-10-16T10:06:43.775Z,95934.28
2022-10-16T10:09:25.913Z,95925.34
2022-10-16T10:11:57.143Z,95923.72
2022-10-16T10:14:38.144Z,95920.81
2022-10-16T10:17:06.010Z,95919.66
2022-10-16T10:19:42.317Z,95921.03
2022-10-16T10:22:27.402Z,95918.09
2022-10-16T10:25:09.623Z,95923.66
2022-10-16T10:27:42.449Z,95917.16
2022-10-16T10:30:24.696Z,95913.06
2022-10-16T10:32:57.503Z,95914.16
2022-10-16T10:35:44.140Z,95910.78
2022-10-16T10:38:31.006Z,95905.09
2022-10-16T10:41:07.000Z,95905.91
2022-10-16T10:43:54.978Z,95896.31
2022-10-16T10:46:33.593Z,95892.41
2022-10-16T10:49:30.577Z,95895.84
2022-10-16T10:52:32.834Z,95894.47
2022-10-16T10:55:37.080Z,95895.22
2022-10-16T10:58:03.946Z,95887.47
2022-10-16T11:01:05.119Z,95894.50
2022-10-16T11:03:59.800Z,95875.25
2022-10-16T11:06:47.753Z,95879.59
2022-10-16T11:09:43.332Z,95876.66
2022-10-16T11:12:26.920Z,95873.03
2022-10-16T11:15:05.613Z,95871.78
2022-10-16T11:17:41.186Z,95873.84
2022-10-16T11:20:27.817Z,95871.81
2022-10-16T11:22:57.618Z,95861.25
2022-10-16T11:25:30.767Z,95862.97
2022-10-16T11:28:15.959Z,95857.25
2022-10-16T11:30:55.577Z,95862.63
2022-10-16T11:33:34.272Z,95853.81
2022-10-16T11:36:18.071Z,95856.16
2022-10-16T11:38:55.711Z,95834.25
2022-10-16T11:41:38.516Z,95861.75
2022-10-16T11:44:26.662Z,95855.81
2022-10-16T11:47:28.486Z,95853.91
2022-10-16T11:49:54.702Z,95859.28
2022-10-16T11:52:29.844Z,95860.28
2022-10-16T11:55:19.681Z,95859.50
2022-10-16T11:57:55.596Z,95858.41
2022-10-16T12:00:28.421Z,95862.44
2022-10-16T12:03:04.296Z,95854.25
2022-10-16T12:05:50.246Z,95850.72
2022-10-16T12:08:17.890Z,95828.09
2022-10-16T12:10:47.336Z,95849.06
2022-10-16T12:13:34.101Z,95849.06
2022-10-16T12:16:13.204Z,95851.66
2022-10-16T12:18:47.021Z,95842.25
2022-10-16T12:21:16.916Z,95850.28
2022-10-16T12:23:55.296Z,95842.28
2022-10-16T12:26:31.008Z,95842.59
2022-10-16T12:29:24.692Z,95848.25
2022-10-16T12:31:58.393Z,95839.94
2022-10-16T12:34:28.739Z,95841.88
2022-10-16T12:36:57.280Z,95842.34
2022-10-16T12:39:26.203Z,95851.84
2022-10-16T12:42:05.588Z,95841.97
2022-10-16T12:44:37.262Z,95842.03
2022-10-16T12:47:04.114Z,95839.94
2022-10-16T12:49:39.705Z,95843.31
2022-10-16T12:52:27.322Z,95843.56
2022-10-16T12:55:00.187Z,95840.94
2022-10-16T12:57:27.357Z,95837.41
2022-10-16T13:00:16.042Z,95839.00
2022-10-16T13:03:20.105Z,95840.13
2022-10-16T13:06:05.159Z,95847.09
2022-10-16T13:08:45.370Z,95852.09
2022-10-16T13:11:47.408Z,95850.13
2022-10-16T13:14:48.112Z,95848.94
2022-10-16T13:17:43.123Z,95841.03
2022-10-16T13:20:44.951Z,95832.56
2022-10-16T13:23:16.893Z,95839.44
2022-10-16T13:25:52.616Z,95844.03
2022-10-16T13:28:23.550Z,95850.16
2022-10-16T13:31:00.160Z,95846.53
2022-10-16T13:33:43.102Z,95847.84
2022-10-16T13:36:46.320Z,95842.06
2022-10-16T13:39:21.827Z,95845.97
2022-10-16T13:44:53.675Z,95846.63
2022-10-16T13:47:26.368Z,95859.84
2022-10-16T13:50:05.970Z,95855.91
2022-10-16T13:52:33.598Z,95859.34
2022-10-16T13:55:02.110Z,95857.13
2022-10-16T13:57:29.682Z,95857.13
2022-10-16T13:59:56.546Z,95868.56
2022-10-16T14:02:36.495Z,95862.28
2022-10-16T14:05:05.469Z,95867.28
2022-10-16T14:07:34.122Z,95869.91
2022-10-16T14:10:21.328Z,95872.50
2022-10-16T14:12:56.423Z,95880.66
2022-10-16T14:15:23.430Z,95885.00
2022-10-16T14:17:52.980Z,95884.59
2022-10-16T14:20:23.311Z,95883.00
2022-10-16T14:23:01.339Z,95889.25
2022-10-16T14:25:31.409Z,95888.34
2022-10-16T14:28:20.360Z,95899.28
2022-10-16T14:31:15.006Z,95905.81
2022-10-16T14:33:41.842Z,95902.38
2022-10-16T14:36:11.453Z,95902.59
2022-10-16T14:38:41.236Z,95899.13
2022-10-16T14:41:08.545Z,95903.88
2022-10-16T14:43:37.814Z,95917.19
2022-10-16T14:46:14.676Z,95902.09
2022-10-16T14:48:44.059Z,95912.91
2022-10-16T14:51:21.087Z,95921.97
2022-10-16T14:53:48.123Z,95926.50
2022-10-16T14:56:23.793Z,95926.28
2022-10-16T14:58:53.208Z,95921.09
2022-10-16T15:01:20.893Z,95927.22
2022-10-16T15:03:47.992Z,95900.81
2022-10-16T15:06:17.622Z,95925.13
2022-10-16T15:08:44.671Z,95920.81
2022-10-16T15:11:19.992Z,95922.72
2022-10-16T15:13:47.704Z,95930.47
2022-10-16T15:16:17.690Z,95920.84
2022-10-16T15:18:45.295Z,95920.25
2022-10-16T15:21:27.095Z,95935.44
2022-10-16T15:23:54.466Z,95940.66
2022-10-16T15:26:21.139Z,95945.44
2022-10-16T15:28:48.142Z,95940.25
2022-10-16T15:31:15.181Z,95937.84
2022-10-16T15:33:41.957Z,95954.84
2022-10-16T15:36:09.122Z,95942.22
2022-10-16T15:38:36.396Z,95951.78
2022-10-16T15:41:03.658Z,95956.91
2022-10-16T15:43:30.493Z,95959.28
2022-10-16T15:46:02.581Z,95961.03
2022-10-16T15:48:30.473Z,95965.06
2022-10-16T15:50:58.454Z,95967.19
2022-10-16T15:53:25.656Z,95974.84
2022-10-16T15:55:52.518Z,95973.66
2022-10-16T15:58:19.370Z,95969.88
2022-10-16T16:00:46.728Z,95968.19
2022-10-16T16:03:13.549Z,95988.94
2022-10-16T16:05:45.599Z,95990.44
2022-10-16T16:08:13.487Z,95984.50
2022-10-16T16:10:40.220Z,95988.47
2022-10-16T16:13:07.271Z,95998.66
2022-10-16T16:15:34.256Z,96003.97
2022-10-16T16:18:03.256Z,96005.16
2022-10-16T16:20:30.056Z,96007.13
2022-10-16T16:22:59.969Z,96009.91
2022-10-16T16:25:26.729Z,96019.44
2022-10-16T16:27:54.163Z,96021.84
2022-10-16T16:30:23.760Z,96030.31
2022-10-16T16:32:54.380Z,96017.16
2022-10-16T16:35:21.035Z,96037.91
2022-10-16T16:37:48.793Z,96028.28
2022-10-16T16:40:15.717Z,96025.81
2022-10-16T16:42:42.648Z,96043.97
2022-10-16T16:45:09.916Z,96050.41
2022-10-16T16:47:36.772Z,96042.38
2022-10-16T16:50:05.875Z,96046.41
2022-10-16T16:52:32.756Z,96060.91
2022-10-16T16:54:59.728Z,96055.03
2022-10-16T16:57:26.821Z,96070.56
2022-10-16T16:59:53.809Z,96072.22
2022-10-16T17:02:21.578Z,96076.25
2022-10-16T17:04:49.038Z,96079.28
2022-10-16T17:07:16.845Z,96089.19
2022-10-16T17:09:45.204Z,96089.53
2022-10-16T17:12:12.044Z,96093.59
2022-10-16T17:14:40.115Z,96095.09
2022-10-16T17:17:08.224Z,96099.34
2022-10-16T17:19:35.865Z,96091.13
2022-10-16T17:24:34.500Z,96104.31
2022-10-16T17:27:01.216Z,96105.34
2022-10-16T17:29:28.023Z,96107.78
2022-10-16T17:31:56.893Z,96107.28
2022-10-16T17:34:24.816Z,96109.22
2022-10-16T17:36:51.696Z,96100.44
2022-10-16T17:39:19.017Z,96104.53
2022-10-16T17:41:48.385Z,96106.66
2022-10-16T17:44:20.303Z,96111.97
2022-10-16T17:46:49.649Z,96118.41
2022-10-16T17:49:18.948Z,96115.97
2022-10-16T17:51:47.439Z,96112.25
2022-10-16T17:54:17.106Z,96115.13
2022-10-16T17:56:43.982Z,96108.16
2022-10-16T17:59:12.397Z,96116.88
2022-10-16T18:01:41.529Z,96115.94
2022-10-16T18:04:12.457Z,96111.97
2022-10-16T18:06:41.575Z,96113.19
2022-10-16T18:09:09.563Z,96121.19
2022-10-16T18:11:37.007Z,96122.19
2022-10-16T18:14:04.177Z,96136.09
2022-10-16T18:16:31.565Z,96136.63
2022-10-16T18:19:00.420Z,96123.78
2022-10-16T18:21:32.324Z,96134.53
2022-10-16T18:24:01.365Z,96140.69
2022-10-16T18:26:28.895Z,96141.22
2022-10-16T18:28:57.505Z,96140.81
2022-10-16T18:31:28.687Z,96137.47
2022-10-16T18:33:56.057Z,96147.84
2022-10-16T18:36:26.165Z,96145.44
2022-10-16T18:38:54.032Z,96147.06
2022-10-16T18:41:21.292Z,96162.72
2022-10-16T18:43:47.998Z,96166.66
2022-10-16T18:46:17.550Z,96174.88
2022-10-16T18:48:45.496Z,96173.56
2022-10-16T18:51:28.713Z,96164.19
2022-10-16T18:54:00.115Z,96191.22
2022-10-16T18:56:28.926Z,96187.47
2022-10-16T18:58:59.093Z,96186.53
2022-10-16T19:01:28.245Z,96183.31
2022-10-16T19:03:58.040Z,96186.44
2022-10-16T19:06:26.947Z,96205.50
2022-10-16T19:08:55.075Z,96201.31
2022-10-16T19:11:24.830Z,96205.06
2022-10-16T19:13:56.969Z,96215.09
2022-10-16T19:16:29.921Z,96214.31
2022-10-16T19:18:59.791Z,96220.75
2022-10-16T19:21:27.877Z,96223.13
2022-10-16T19:23:57.765Z,96216.47
2022-10-16T19:26:25.918Z,96229.91
2022-10-16T19:28:54.887Z,96230.53
2022-10-16T19:31:23.142Z,96228.66
2022-10-16T19:33:55.241Z,96237.94
2022-10-16T19:36:29.557Z,96236.88
2022-10-16T19:38:59.458Z,96233.97
2022-10-16T19:41:27.345Z,96237.69
2022-10-16T19:43:56.273Z,96238.47
2022-10-16T19:46:25.319Z,96246.97
2022-10-16T19:48:57.622Z,96245.03
2022-10-16T19:51:26.451Z,96240.00
2022-10-16T19:53:58.578Z,96247.34
2022-10-16T19:56:27.815Z,96243.22
2022-10-16T19:58:58.244Z,96254.31
2022-10-16T20:01:28.364Z,96253.78
2022-10-16T20:03:55.877Z,96255.41
2022-10-16T20:06:23.280Z,96264.13
2022-10-16T20:08:51.785Z,96250.06
2022-10-16T20:11:22.516Z,96264.38
2022-10-16T20:13:50.291Z,96260.06
2022-10-16T20:16:19.314Z,96261.13
2022-10-16T20:18:48.150Z,96255.31
2022-10-16T20:21:18.363Z,96262.63
2022-10-16T20:23:47.195Z,96266.44
2022-10-16T20:26:14.643Z,96258.69
2022-10-16T20:28:42.699Z,96266.81
2022-10-16T20:31:24.327Z,96271.13
2022-10-16T20:33:53.083Z,96260.69
2022-10-16T20:36:21.397Z,96262.75
2022-10-16T20:38:48.476Z,96272.81
2022-10-16T20:41:16.086Z,96283.69
2022-10-16T20:43:45.010Z,96281.50
2022-10-16T20:46:13.895Z,96285.72
2022-10-16T20:48:44.554Z,96281.19
2022-10-16T20:51:31.961Z,96261.84
2022-10-16T20:54:01.345Z,96286.22
2022-10-16T20:56:30.367Z,96277.19
2022-10-16T20:59:15.487Z,96278.81
2022-10-16T21:01:42.440Z,96289.34
2022-10-16T21:04:09.974Z,96284.28
2022-10-16T21:06:39.363Z,96278.97
2022-10-16T21:09:07.150Z,96274.75
2022-10-16T21:11:35.899Z,96280.16
2022-10-16T21:14:04.645Z,96284.00
2022-10-16T21:16:32.125Z,96296.56
2022-10-16T21:18:59.010Z,96290.66
2022-10-16T21:21:28.328Z,96264.38
2022-10-16T21:23:57.331Z,96286.78
2022-10-16T21:26:27.979Z,96284.09
2022-10-16T21:29:02.390Z,96287.28
2022-10-16T21:31:29.855Z,96273.59
2022-10-16T21:33:56.887Z,96291.63
2022-10-16T21:36:31.870Z,96290.59
2022-10-16T21:39:04.158Z,96290.63
2022-10-16T21:41:31.106Z,96293.22
2022-10-16T21:43:59.141Z,96301.59
2022-10-16T21:46:29.295Z,96294.50
2022-10-16T21:48:57.217Z,96297.41
2022-10-16T21:51:29.003Z,96292.41
2022-10-16T21:53:55.997Z,96300.84
2022-10-16T21:56:23.357Z,96309.19
2022-10-16T21:58:50.419Z,96300.66
2022-10-16T22:01:19.753Z,96327.09
2022-10-16T22:03:47.148Z,96324.63
2022-10-16T22:06:16.269Z,96328.88
2022-10-16T22:08:43.309Z,96344.56
2022-10-16T22:11:23.203Z,96343.53
2022-10-16T22:13:54.052Z,96352.41
2022-10-16T22:16:25.633Z,96342.44
2022-10-16T22:18:53.978Z,96345.22
2022-10-16T22:21:20.825Z,96345.22
2022-10-16T22:23:50.377Z,96355.47
2022-10-16T22:26:17.415Z,96346.06
2022-10-16T22:28:44.282Z,96352.41
2022-10-16T22:31:14.068Z,96359.91
2022-10-16T22:33:41.186Z,96366.63
2022-10-16T22:36:12.040Z,96356.63
2022-10-16T22:38:39.379Z,96367.56
2022-10-16T22:41:09.091Z,96365.47
2022-10-16T22:43:40.458Z,96367.84
2022-10-16T22:46:09.187Z,96366.31
2022-10-16T22:48:36.892Z,96371.13
2022-10-16T22:51:05.745Z,96372.75
2022-10-16T22:53:33.844Z,96372.13
2022-10-16T22:56:01.048Z,96368.09
2022-10-16T22:58:27.880Z,96381.50
2022-10-16T23:00:54.986Z,96378.72
2022-10-16T23:03:21.944Z,96386.13
2022-10-16T23:05:48.849Z,96385.66
2022-10-16T23:08:16.010Z,96388.09
2022-10-16T23:10:44.585Z,96393.22
2022-10-16T23:13:12.136Z,96376.09
2022-10-16T23:15:40.923Z,96373.94
2022-10-16T23:18:08.149Z,96390.34
2022-10-16T23:20:35.326Z,96389.22
2022-10-16T23:23:02.203Z,96380.91
2022-10-16T23:25:30.096Z,96378.84
2022-10-16T23:27:57.021Z,96393.75
2022-10-16T23:30:23.783Z,96389.75
2022-10-16T23:32:52.289Z,96388.53
2022-10-16T23:35:19.295Z,96403.84
2022-10-16T23:37:46.164Z,96407.19
2022-10-16T23:40:13.079Z,96400.13
2022-10-16T23:42:39.841Z,96392.06
2022-10-16T23:45:07.039Z,96403.53
2022-10-16T23:47:33.761Z,96396.19
2022-10-16T23:50:00.641Z,96406.25
2022-10-16T23:52:27.457Z,96372.03
2022-10-16T23:54:54.178Z,96398.38
2022-10-16T23:57:21.045Z,96403.81
2022-10-16T23:59:47.929Z,96404.22
